Terminal Aerodrome Forecast
Issued by NWS Wilmington, NC

Home | Current Version | Previous Version | Text Only | Print | Product List | Glossary On
Versions: 1 2 3 4 5 6 7 8 9 10 11 12 13 14 15 16 17 18
000
FTUS42 KILM 180500
TAFLBT
TAF
KLBT 180520Z 1806/1906 06010G15KT P6SM BKN250
     FM180800 05009KT P6SM SCT008 BKN050
     FM181300 04012KT P6SM SCT035 BKN200
     FM181900 03012G17KT P6SM SCT050 BKN100
     FM190000 02010G16KT 6SM -RA SCT030 BKN045
     FM190400 06012KT 4SM RA BR BKN014
     FM190500 06013G18KT 4SM RA BR BKN008=

USA.gov is the U.S. government's official web portal to all federal, state and local government web resources and services.